Time;durP1;ratioP1;P1;durP2;ratioP2;P2;SDS_P1;SDS_P2;PMS_P1;PMS_P2;Temp;Humidity;BMP_temperature;BMP_pressure;BME280_temperature;BME280_humidity;BME280_pressure;Samples;Min_cycle;Max_cycle;Signal;HPM_P1;HPM_P2
2022/08/31 00:04:01;;;;;;;2.80;1.52;;;;;;;13.12;75.15;102234.22;5057384;28;20546;-71
2022/08/31 00:06:30;;;;;;;6.72;1.67;;;;;;;13.06;75.46;102234.78;5053373;28;20059;-71
2022/08/31 00:08:56;;;;;;;3.55;1.73;;;;;;;13.06;75.86;102240.22;5052881;28;20024;-70
2022/08/31 00:11:27;;;;;;;4.53;1.65;;;;;;;13.06;75.80;102237.50;5052186;28;20520;-71
2022/08/31 00:13:54;;;;;;;2.63;1.47;;;;;;;13.00;75.09;102251.66;5053329;28;20024;-70
2022/08/31 00:16:21;;;;;;;4.10;1.67;;;;;;;13.10;75.63;102241.63;5052704;28;20032;-71
2022/08/31 00:18:51;;;;;;;4.07;1.15;;;;;;;13.09;76.18;102239.91;5048675;28;20040;-70
2022/08/31 00:21:17;;;;;;;4.43;1.50;;;;;;;13.12;75.65;102234.22;5052764;28;20024;-70
2022/08/31 00:23:42;;;;;;;5.60;1.75;;;;;;;13.14;75.55;102232.19;5070812;28;20024;-70
2022/08/31 00:26:07;;;;;;;2.47;1.33;;;;;;;13.20;75.32;102225.34;5052465;28;20028;-70
2022/08/31 00:28:33;;;;;;;7.65;1.30;;;;;;;13.12;75.78;102228.75;5052709;28;20085;-71
2022/08/31 00:30:58;;;;;;;3.65;1.55;;;;;;;13.20;75.81;102220.78;5051893;28;20032;-71
2022/08/31 00:33:23;;;;;;;1.88;1.17;;;;;;;13.21;75.53;102222.50;5051720;28;20028;-71
2022/08/31 00:35:49;;;;;;;6.00;1.40;;;;;;;13.18;75.72;102227.34;5070915;28;20025;-71
2022/08/31 00:38:15;;;;;;;2.50;1.15;;;;;;;13.19;75.61;102219.03;5069984;28;20027;-72
2022/08/31 00:40:44;;;;;;;4.43;1.25;;;;;;;13.14;76.49;102226.75;5052229;28;20031;-71
2022/08/31 00:43:10;;;;;;;2.67;1.27;;;;;;;13.07;76.73;102220.16;5042256;28;20024;-71
2022/08/31 00:45:35;;;;;;;3.33;1.20;;;;;;;13.08;76.69;102216.44;5032344;28;20039;-70
2022/08/31 00:48:01;;;;;;;2.45;1.25;;;;;;;13.10;76.61;102217.16;5059560;28;20062;-70
2022/08/31 00:50:27;;;;;;;7.65;1.60;;;;;;;13.13;76.86;102218.75;5038668;28;20128;-71
2022/08/31 00:52:57;;;;;;;4.32;1.20;;;;;;;13.00;77.04;102224.44;5032446;28;20040;-70
2022/08/31 00:55:32;;;;;;;1.85;1.05;;;;;;;13.09;76.90;102223.59;5049961;28;20079;-70
2022/08/31 00:58:02;;;;;;;1.80;1.27;;;;;;;13.04;76.53;102220.47;5050082;28;20421;-71
2022/08/31 01:00:27;;;;;;;4.78;1.20;;;;;;;13.12;76.57;102223.31;5032339;28;20024;-70
2022/08/31 01:02:55;;;;;;;4.65;1.25;;;;;;;13.07;76.31;102220.16;5036182;28;20020;-71
2022/08/31 01:05:20;;;;;;;5.72;1.40;;;;;;;13.14;76.12;102221.31;5051849;28;20039;-71
2022/08/31 01:07:47;;;;;;;2.50;1.45;;;;;;;13.16;75.82;102219.31;5051998;28;20111;-71
2022/08/31 01:10:17;;;;;;;6.47;1.20;;;;;;;13.09;75.88;102226.31;5069777;28;20028;-71
2022/08/31 01:12:44;;;;;;;2.72;1.35;;;;;;;13.04;76.52;102226.75;5051519;28;20473;-71
2022/08/31 01:15:11;;;;;;;1.55;1.10;;;;;;;13.05;76.70;102227.63;5052013;28;20032;-71
2022/08/31 01:17:37;;;;;;;1.98;1.40;;;;;;;13.05;76.35;102222.19;5060716;28;20128;-71
2022/08/31 01:20:02;;;;;;;4.03;1.25;;;;;;;13.03;76.45;102229.59;5043712;28;20067;-71
2022/08/31 01:22:44;;;;;;;1.50;1.00;;;;;;;12.86;76.94;102238.47;5051671;28;20424;-70
2022/08/31 01:25:11;;;;;;;4.53;1.33;;;;;;;12.82;77.37;102232.41;5051311;28;20502;-71
2022/08/31 01:27:37;;;;;;;1.50;1.08;;;;;;;12.82;77.26;102231.56;5051769;28;20089;-71
2022/08/31 01:30:09;;;;;;;3.92;1.13;;;;;;;12.70;77.87;102234.38;5069689;28;20025;-71
2022/08/31 01:32:35;;;;;;;3.42;1.20;;;;;;;12.65;77.85;102241.22;5051810;28;20062;-71
2022/08/31 01:35:00;;;;;;;4.38;1.25;;;;;;;12.56;78.25;102237.50;5069060;28;20025;-70
2022/08/31 01:37:26;;;;;;;1.98;1.02;;;;;;;12.53;78.70;102232.34;5051092;28;20027;-71
2022/08/31 01:39:51;;;;;;;2.90;1.38;;;;;;;12.60;78.28;102232.66;5068751;28;20038;-71
2022/08/31 01:42:17;;;;;;;4.07;1.52;;;;;;;12.55;78.60;102245.78;5063632;28;20025;-71
2022/08/31 01:44:43;;;;;;;2.78;1.30;;;;;;;12.40;79.22;102248.03;5011865;28;20033;-71
2022/08/31 01:47:08;;;;;;;5.18;1.30;;;;;;;12.39;78.95;102240.88;5017705;28;20017;-71
2022/08/31 01:49:34;;;;;;;2.28;1.08;;;;;;;12.36;78.89;102235.72;5060509;28;20028;-71
2022/08/31 01:51:59;;;;;;;1.63;1.20;;;;;;;12.32;79.13;102245.13;5068770;28;20028;-72
2022/08/31 01:54:26;;;;;;;1.30;0.88;;;;;;;12.34;78.27;102245.84;5051450;28;20029;-71
2022/08/31 01:56:53;;;;;;;2.72;1.58;;;;;;;12.29;78.54;102253.56;5051002;28;20035;-70
2022/08/31 01:59:20;;;;;;;2.20;1.30;;;;;;;12.34;78.41;102254.00;5068686;28;20061;-70
2022/08/31 02:01:50;;;;;;;2.55;1.23;;;;;;;12.40;78.39;102253.47;5051369;28;20035;-70
2022/08/31 02:04:19;;;;;;;3.17;1.10;;;;;;;12.31;79.25;102254.25;5069621;28;20025;-71
2022/08/31 02:06:49;;;;;;;1.75;1.08;;;;;;;12.32;78.79;102250.53;5050854;28;20024;-71
2022/08/31 02:09:15;;;;;;;2.78;1.08;;;;;;;12.28;78.21;102243.69;5078566;22;20022;-68
2022/08/31 02:11:41;;;;;;;2.22;1.17;;;;;;;12.29;78.60;102251.69;5040674;28;20033;-68
2022/08/31 02:14:07;;;;;;;2.53;1.10;;;;;;;12.33;77.71;102257.72;5035470;28;20031;-71
2022/08/31 02:16:33;;;;;;;2.45;1.20;;;;;;;12.30;77.69;102247.97;5050624;28;20535;-68
2022/08/31 02:18:59;;;;;;;3.25;1.30;;;;;;;12.25;78.46;102244.81;5030431;28;20028;-69
2022/08/31 02:21:25;;;;;;;1.10;1.00;;;;;;;12.22;78.46;102251.38;5048259;28;20021;-68
2022/08/31 02:23:50;;;;;;;2.78;1.17;;;;;;;12.09;78.42;102253.44;5031196;28;20021;-68
2022/08/31 02:26:16;;;;;;;1.92;0.95;;;;;;;12.14;78.38;102253.91;5029367;28;20115;-68
2022/08/31 02:28:41;;;;;;;1.60;1.10;;;;;;;12.10;79.60;102252.44;5045806;28;20036;-68
2022/08/31 02:31:07;;;;;;;1.42;1.02;;;;;;;12.02;79.72;102244.13;5031032;28;20063;-68
2022/08/31 02:33:32;;;;;;;2.90;1.38;;;;;;;11.93;79.41;102250.34;5048719;28;20050;-69
2022/08/31 02:35:58;;;;;;;2.20;1.40;;;;;;;11.85;80.15;102242.00;5048664;28;20037;-68
2022/08/31 02:38:24;;;;;;;1.50;1.10;;;;;;;11.87;80.08;102234.63;5048397;28;20580;-69
2022/08/31 02:40:50;;;;;;;2.63;1.00;;;;;;;11.87;80.26;102240.03;5030382;28;20059;-69
2022/08/31 02:43:15;;;;;;;3.30;1.23;;;;;;;11.87;79.42;102245.47;5047907;28;20036;-69
2022/08/31 02:45:41;;;;;;;1.08;0.88;;;;;;;11.88;79.11;102241.75;5050516;28;20037;-68
2022/08/31 02:48:08;;;;;;;2.90;0.90;;;;;;;11.90;79.09;102237.03;5055220;28;20033;-71
2022/08/31 02:50:38;;;;;;;3.50;1.20;;;;;;;11.85;78.86;102236.56;5048268;28;20025;-69
2022/08/31 02:53:03;;;;;;;1.25;0.90;;;;;;;11.79;79.00;102237.06;5030313;28;20029;-69
2022/08/31 02:55:29;;;;;;;1.58;1.13;;;;;;;11.85;78.77;102242.00;5031061;28;20029;-68
2022/08/31 02:57:54;;;;;;;5.93;1.65;;;;;;;11.86;78.67;102243.72;5034112;28;20082;-69
2022/08/31 03:00:21;;;;;;;3.05;1.27;;;;;;;11.91;78.99;102236.03;5034619;28;20029;-68
2022/08/31 03:02:48;;;;;;;3.83;1.20;;;;;;;11.90;79.22;102239.75;5034722;28;20021;-69
2022/08/31 03:05:14;;;;;;;2.15;1.05;;;;;;;11.85;79.09;102236.56;5034152;28;20033;-68
2022/08/31 03:07:40;;;;;;;3.97;1.10;;;;;;;11.81;79.86;102229.72;5051439;28;20042;-68
2022/08/31 03:10:09;;;;;;;2.53;1.33;;;;;;;11.93;79.75;102229.50;5033929;28;20037;-68
2022/08/31 03:12:35;;;;;;;2.42;1.48;;;;;;;11.96;79.40;102222.94;5034153;28;20044;-68
2022/08/31 03:15:01;;;;;;;4.05;1.52;;;;;;;11.88;80.78;102228.19;5051506;28;20170;-68
2022/08/31 03:17:27;;;;;;;6.88;1.90;;;;;;;11.82;81.21;102226.00;5035576;28;20326;-69
2022/08/31 03:19:59;;;;;;;4.60;2.00;;;;;;;11.80;80.88;102227.94;5033485;28;20033;-68
2022/08/31 03:22:26;;;;;;;2.72;1.73;;;;;;;11.73;81.44;102224.03;5033955;28;20025;-69
2022/08/31 03:24:52;;;;;;;4.70;1.83;;;;;;;11.75;80.82;102225.66;5033740;28;20048;-67
2022/08/31 03:27:17;;;;;;;3.40;2.13;;;;;;;11.69;80.99;102231.59;5033558;28;20086;-68
2022/08/31 03:29:43;;;;;;;3.92;1.80;;;;;;;11.65;80.36;102220.13;5033506;28;20029;-68
2022/08/31 03:32:08;;;;;;;2.30;1.48;;;;;;;11.67;80.68;102223.59;5033723;28;20033;-68
2022/08/31 03:34:34;;;;;;;2.10;1.23;;;;;;;11.74;80.67;102228.50;5051231;28;20028;-68
2022/08/31 03:36:59;;;;;;;2.80;1.50;;;;;;;11.64;81.22;102228.41;5033688;28;20029;-68
2022/08/31 03:39:25;;;;;;;6.65;1.40;;;;;;;11.62;81.22;102231.25;5051062;28;20021;-68
2022/08/31 03:41:50;;;;;;;5.45;1.60;;;;;;;11.65;80.62;102236.41;5050945;28;20020;-68
2022/08/31 03:44:22;;;;;;;6.72;1.17;;;;;;;11.67;80.92;102234.44;5035178;28;20029;-69
2022/08/31 03:46:49;;;;;;;2.88;1.50;;;;;;;11.75;80.82;102230.22;5053197;28;20029;-69
2022/08/31 03:49:17;;;;;;;4.25;1.55;;;;;;;11.79;80.21;102237.06;5051333;28;20037;-69
2022/08/31 03:51:43;;;;;;;4.07;2.00;;;;;;;11.80;80.72;102238.78;5050952;28;20044;-68
2022/08/31 03:54:08;;;;;;;5.28;1.83;;;;;;;11.75;79.96;102241.94;5032714;28;20444;-69
2022/08/31 03:56:34;;;;;;;5.43;1.80;;;;;;;11.78;79.54;102246.22;5033443;28;20028;-68
2022/08/31 03:58:59;;;;;;;2.72;1.73;;;;;;;11.83;80.16;102238.56;5032611;28;20053;-68
2022/08/31 04:01:24;;;;;;;4.88;1.70;;;;;;;11.82;80.32;102247.72;5032660;28;20025;-69
2022/08/31 04:03:50;;;;;;;4.88;1.90;;;;;;;11.78;81.70;102235.34;5050497;28;20032;-69
2022/08/31 04:06:15;;;;;;;5.72;1.50;;;;;;;11.76;80.13;102248.22;5032651;28;20366;-69
2022/08/31 04:08:41;;;;;;;7.18;1.50;;;;;;;11.75;79.98;102243.78;5032036;28;20029;-68
2022/08/31 04:11:14;;;;;;;5.82;1.80;;;;;;;11.71;79.67;102250.44;5032949;28;20028;-68
2022/08/31 04:13:39;;;;;;;2.90;1.35;;;;;;;11.56;79.97;102248.06;5033350;28;20021;-68
2022/08/31 04:16:11;;;;;;;3.67;1.55;;;;;;;11.50;80.31;102248.59;5033046;28;20504;-68
2022/08/31 04:18:46;;;;;;;;;;;;;;;11.55;81.30;102257.19;5036755;28;20079;-68
2022/08/31 04:21:18;;;;;;;7.45;2.05;;;;;;;11.49;81.88;102252.28;5050580;28;20427;-68
2022/08/31 04:23:44;;;;;;;5.70;2.22;;;;;;;11.47;82.02;102247.97;5070974;28;20035;-68
2022/08/31 04:26:25;;;;;;;5.53;1.67;;;;;;;11.47;81.93;102248.84;5052483;28;20041;-71
2022/08/31 04:28:51;;;;;;;5.53;1.88;;;;;;;11.48;82.23;102258.72;5069852;28;20021;-67
2022/08/31 04:31:18;;;;;;;3.58;2.00;;;;;;;11.49;81.90;102255.00;5052145;28;20035;-68
2022/08/31 04:33:44;;;;;;;3.67;1.85;;;;;;;11.42;82.48;102253.81;5052651;28;20050;-68
2022/08/31 04:36:13;;;;;;;2.97;1.65;;;;;;;11.34;82.02;102264.41;5052379;28;20025;-69
2022/08/31 04:38:42;;;;;;;4.93;1.70;;;;;;;11.28;82.25;102259.50;5051957;28;20028;-71
2022/08/31 04:41:10;;;;;;;4.00;2.05;;;;;;;11.32;83.53;102255.56;5051827;28;20029;-68
2022/08/31 04:43:37;;;;;;;3.65;1.83;;;;;;;11.35;82.91;102266.16;5028527;28;20017;-68
2022/08/31 04:46:04;;;;;;;7.07;2.03;;;;;;;11.36;83.30;102267.88;5027329;28;20123;-69
2022/08/31 04:48:30;;;;;;;4.70;2.40;;;;;;;11.38;83.16;102265.91;5023151;28;20067;-69
2022/08/31 04:51:00;;;;;;;2.63;1.90;;;;;;;11.38;82.93;102266.75;5038761;28;20060;-68
2022/08/31 04:53:26;;;;;;;5.50;1.95;;;;;;;11.37;83.17;102269.59;5034375;28;20029;-69
2022/08/31 04:55:51;;;;;;;3.58;1.90;;;;;;;11.36;82.91;102262.47;5053740;28;20032;-69
2022/08/31 04:58:19;;;;;;;2.97;1.95;;;;;;;11.32;83.10;102269.97;5046101;28;20052;-69
2022/08/31 05:00:45;;;;;;;6.82;2.70;;;;;;;11.43;83.12;102263.66;5033925;28;20025;-69
2022/08/31 05:03:10;;;;;;;6.93;2.40;;;;;;;11.48;83.28;102266.84;5034451;28;20055;-69
2022/08/31 05:05:39;;;;;;;9.85;2.15;;;;;;;11.52;82.74;102262.88;5033868;28;20028;-68
2022/08/31 05:08:04;;;;;;;5.90;1.85;;;;;;;11.58;82.49;102261.50;5030454;28;20025;-68
2022/08/31 05:10:30;;;;;;;5.03;2.63;;;;;;;11.66;82.60;102265.25;5053289;28;20037;-69
2022/08/31 05:12:56;;;;;;;2.53;1.88;;;;;;;11.78;82.68;102263.34;5050369;28;20044;-68
2022/08/31 05:15:21;;;;;;;3.88;1.63;;;;;;;11.75;81.97;102257.34;5052339;28;20066;-69
2022/08/31 05:17:47;;;;;;;6.63;2.08;;;;;;;11.86;83.06;102260.00;5060853;28;20033;-68
2022/08/31 05:20:12;;;;;;;4.50;1.85;;;;;;;11.92;82.35;102259.47;5042692;28;20033;-69
2022/08/31 05:22:37;;;;;;;6.97;2.05;;;;;;;12.00;81.67;102262.41;5071538;28;20027;-69
2022/08/31 05:25:05;;;;;;;8.00;2.25;;;;;;;12.12;82.30;102261.31;5055503;28;20036;-68
2022/08/31 05:27:32;;;;;;;6.00;1.65;;;;;;;12.26;81.23;102259.22;5051065;28;20079;-69
2022/08/31 05:29:57;;;;;;;3.53;1.83;;;;;;;12.37;80.25;102264.59;5029823;28;20021;-69
2022/08/31 05:32:23;;;;;;;2.63;1.92;;;;;;;12.32;79.92;102269.56;5032851;28;20025;-69
2022/08/31 05:34:48;;;;;;;11.40;2.47;;;;;;;12.21;80.75;102265.94;5032508;28;20024;-69
2022/08/31 05:37:14;;;;;;;3.30;1.95;;;;;;;12.22;80.25;102273.09;5049286;28;20029;-68
2022/08/31 05:39:39;;;;;;;8.88;2.38;;;;;;;12.34;80.86;102265.72;5024495;28;20087;-70
2022/08/31 05:42:06;;;;;;;6.88;1.90;;;;;;;12.38;79.81;102269.03;5024431;28;20089;-69
2022/08/31 05:44:35;;;;;;;9.00;2.05;;;;;;;12.55;79.58;102273.81;5049520;28;20047;-69
2022/08/31 05:47:04;;;;;;;7.30;1.98;;;;;;;12.61;79.09;102273.28;5052064;28;20134;-69
2022/08/31 05:49:30;;;;;;;6.55;1.80;;;;;;;12.71;79.23;102279.63;5034836;28;20028;-70
2022/08/31 05:51:55;;;;;;;9.43;1.95;;;;;;;12.84;79.57;102278.50;5052596;28;20025;-69
2022/08/31 05:54:21;;;;;;;8.65;2.25;;;;;;;12.97;78.17;102284.53;5032638;28;20036;-70
2022/08/31 05:56:46;;;;;;;7.45;2.03;;;;;;;13.07;78.17;102285.44;5037165;28;20025;-69
2022/08/31 05:59:13;;;;;;;12.27;2.72;;;;;;;13.09;78.72;102291.56;5031652;28;20028;-71
2022/08/31 06:01:39;;;;;;;2.45;1.50;;;;;;;13.28;78.94;102294.38;5032876;28;20024;-71
2022/08/31 06:04:06;;;;;;;9.82;2.00;;;;;;;13.41;78.20;102287.78;5030244;28;20059;-69
2022/08/31 06:06:32;;;;;;;7.82;1.42;;;;;;;13.53;77.69;102292.09;5033200;28;20024;-70
2022/08/31 06:08:57;;;;;;;8.82;1.98;;;;;;;13.55;77.17;102295.53;5033276;28;20110;-70
2022/08/31 06:11:27;;;;;;;3.53;1.70;;;;;;;13.71;77.43;102298.56;5032572;28;20032;-70
2022/08/31 06:13:55;;;;;;;3.03;1.38;;;;;;;13.89;76.70;102292.34;5033414;28;20039;-71
2022/08/31 06:16:21;;;;;;;2.90;1.48;;;;;;;13.83;76.59;102300.13;5032996;28;20055;-70
2022/08/31 06:18:51;;;;;;;4.50;1.83;;;;;;;13.96;76.33;102294.38;5043025;28;20033;-71
2022/08/31 06:21:23;;;;;;;5.18;1.63;;;;;;;14.16;75.77;102300.66;5011555;28;20037;-70
2022/08/31 06:23:51;;;;;;;7.78;2.42;;;;;;;14.28;75.50;102293.13;5013471;28;20104;-70
2022/08/31 06:26:19;;;;;;;4.90;1.75;;;;;;;14.36;75.36;102291.41;5029614;28;20034;-71
2022/08/31 06:28:47;;;;;;;14.48;2.58;;;;;;;14.39;75.78;102291.09;5029307;28;20246;-68
2022/08/31 06:31:30;;;;;;;7.80;1.63;;;;;;;14.65;75.14;102293.19;5029189;28;20104;-71
2022/08/31 06:33:56;;;;;;;3.97;1.75;;;;;;;14.83;74.48;102299.56;5034558;28;20025;-69
2022/08/31 06:36:24;;;;;;;3.53;1.35;;;;;;;14.82;74.09;102297.84;5045839;28;20035;-70
2022/08/31 06:38:50;;;;;;;3.75;1.75;;;;;;;14.96;73.94;102303.81;5072785;28;20020;-70
2022/08/31 06:41:19;;;;;;;4.28;1.42;;;;;;;15.13;73.61;102303.00;5065122;28;20028;-71
2022/08/31 06:43:44;;;;;;;5.40;1.08;;;;;;;15.19;73.30;102305.09;5052511;28;20044;-70
2022/08/31 06:46:11;;;;;;;7.47;1.52;;;;;;;15.23;73.20;102303.78;5034103;28;20021;-70
2022/08/31 06:48:37;;;;;;;4.55;1.40;;;;;;;15.31;72.75;102309.31;5049201;28;20025;-70
2022/08/31 06:51:05;;;;;;;2.92;1.20;;;;;;;15.55;71.95;102305.13;5033031;28;20021;-70
2022/08/31 06:53:31;;;;;;;4.30;1.52;;;;;;;15.64;71.44;102309.69;5052516;28;20025;-71
2022/08/31 06:56:02;;;;;;;8.77;2.00;;;;;;;15.87;70.61;102300.00;5034711;28;20064;-71
2022/08/31 06:58:28;;;;;;;5.10;1.10;;;;;;;15.96;70.33;102304.50;5024385;28;20033;-70
2022/08/31 07:00:57;;;;;;;6.80;1.80;;;;;;;15.98;70.23;102307.94;5014424;28;20033;-70
2022/08/31 07:03:23;;;;;;;6.18;1.30;;;;;;;16.04;69.88;102305.56;5022671;28;20024;-69
2022/08/31 07:05:51;;;;;;;4.72;1.48;;;;;;;16.16;69.41;102298.84;5027984;28;20115;-70
2022/08/31 07:08:17;;;;;;;3.65;1.35;;;;;;;16.18;68.10;102296.81;5051788;28;20025;-70
2022/08/31 07:10:43;;;;;;;4.65;1.30;;;;;;;16.40;67.68;102296.28;5051824;28;20044;-70
2022/08/31 07:13:08;;;;;;;6.38;3.42;;;;;;;16.44;66.31;102303.16;5034466;28;20010;-69
2022/08/31 07:15:34;;;;;;;5.68;2.40;;;;;;;16.58;65.54;102292.63;5034443;28;20032;-69
2022/08/31 07:18:00;;;;;;;2.13;0.88;;;;;;;16.65;64.19;102290.94;5039001;28;20021;-69
2022/08/31 07:20:25;;;;;;;3.22;0.80;;;;;;;16.71;64.45;102293.06;5046701;28;20032;-70
2022/08/31 07:22:50;;;;;;;2.20;0.77;;;;;;;16.77;64.34;102297.88;5069675;28;20536;-69
2022/08/31 07:25:17;;;;;;;2.60;1.00;;;;;;;16.84;63.15;102296.19;5069496;28;20520;-69
2022/08/31 07:27:43;;;;;;;6.03;1.85;;;;;;;16.96;63.22;102299.50;5051715;28;20099;-71
2022/08/31 07:30:09;;;;;;;2.80;1.23;;;;;;;17.26;61.85;102303.50;5051549;28;20050;-69
2022/08/31 07:32:34;;;;;;;1.35;1.02;;;;;;;17.27;62.16;102310.69;5051904;28;20012;-69
2022/08/31 07:35:00;;;;;;;5.65;1.10;;;;;;;17.71;60.87;102307.69;5053112;28;20115;-70
2022/08/31 07:42:54;;;;;;;1.25;0.65;;;;;;;18.10;58.95;102308.75;5063146;28;20061;-69
2022/08/31 07:45:22;;;;;;;1.60;0.77;;;;;;;18.03;58.60;102296.75;5051299;28;20048;-70
2022/08/31 07:47:48;;;;;;;3.10;0.68;;;;;;;18.23;58.21;102291.75;5051655;28;20071;-69
2022/08/31 07:50:16;;;;;;;1.75;0.80;;;;;;;18.20;58.67;102296.75;5043406;28;20032;-70
2022/08/31 07:52:46;;;;;;;5.50;1.75;;;;;;;18.41;58.18;102299.78;5053614;28;20024;-70
2022/08/31 07:55:11;;;;;;;14.95;5.95;;;;;;;18.56;58.52;102303.50;5053828;28;20028;-70
2022/08/31 07:57:43;;;;;;;2.15;0.98;;;;;;;18.63;57.53;102301.78;5050428;28;20035;-70
2022/08/31 08:00:16;;;;;;;0.85;0.60;;;;;;;18.69;56.97;102298.34;5033063;28;20029;-69
2022/08/31 08:02:45;;;;;;;2.75;1.40;;;;;;;18.68;58.32;102307.63;5033393;28;20078;-69
2022/08/31 08:05:19;;;;;;;1.77;0.93;;;;;;;19.06;57.54;102310.56;5033260;28;20028;-70
2022/08/31 08:07:47;;;;;;;5.75;1.20;;;;;;;19.07;57.29;102312.28;5032985;28;20036;-71
2022/08/31 08:10:14;;;;;;;1.73;0.90;;;;;;;19.12;56.71;102320.84;5033076;28;20032;-70
2022/08/31 08:12:46;;;;;;;2.47;0.93;;;;;;;19.21;56.59;102327.97;5033308;28;20021;-70
2022/08/31 08:15:13;;;;;;;1.33;0.88;;;;;;;19.25;55.79;102315.59;5033024;28;20025;-70
2022/08/31 08:17:39;;;;;;;4.72;0.90;;;;;;;19.75;55.32;102319.75;5033980;28;20029;-70
2022/08/31 08:20:05;;;;;;;2.92;1.10;;;;;;;19.50;55.86;102323.72;5049602;28;20070;-69
2022/08/31 08:22:31;;;;;;;0.68;0.68;;;;;;;19.76;55.39;102324.25;5053132;28;20020;-70
2022/08/31 08:24:58;;;;;;;1.73;0.75;;;;;;;19.61;54.38;102325.19;5053064;28;20154;-69
2022/08/31 08:27:24;;;;;;;8.05;0.95;;;;;;;19.93;54.23;102324.09;5052763;28;20027;-69
2022/08/31 08:29:49;;;;;;;1.50;0.60;;;;;;;20.07;53.75;102320.53;5070597;28;20017;-70
2022/08/31 08:32:17;;;;;;;1.48;1.10;;;;;;;20.17;52.61;102320.28;5052482;28;20033;-70
2022/08/31 08:34:43;;;;;;;2.88;0.90;;;;;;;20.28;52.44;102323.44;5052335;28;20085;-70
2022/08/31 08:37:10;;;;;;;1.63;0.80;;;;;;;20.24;52.50;102322.09;5052933;28;20119;-70
2022/08/31 08:39:37;;;;;;;4.72;1.40;;;;;;;20.39;51.43;102318.50;5052890;28;20120;-70
2022/08/31 08:42:04;;;;;;;4.43;1.20;;;;;;;20.43;51.00;102314.34;5051467;28;20447;-71
2022/08/31 08:44:34;;;;;;;3.45;0.85;;;;;;;20.58;51.09;102312.47;5014708;28;20056;-69
2022/08/31 08:47:04;;;;;;;3.10;1.25;;;;;;;20.83;50.52;102316.66;5050699;28;20074;-70
2022/08/31 08:49:40;;;;;;;1.60;0.70;;;;;;;20.95;49.74;102318.94;5044153;28;20016;-70
2022/08/31 08:52:11;;;;;;;1.02;0.80;;;;;;;20.59;49.78;102325.19;5052142;28;20012;-70
2022/08/31 08:54:42;;;;;;;0.90;0.63;;;;;;;20.68;49.41;102324.06;5051964;28;20074;-70
2022/08/31 08:57:12;;;;;;;1.42;0.75;;;;;;;20.60;48.72;102321.38;5052548;28;20035;-69
2022/08/31 08:59:40;;;;;;;4.55;0.70;;;;;;;20.70;47.98;102313.72;5032430;28;20067;-70
2022/08/31 09:02:10;;;;;;;1.92;0.80;;;;;;;20.59;49.11;102315.03;5032758;28;20021;-70
2022/08/31 09:05:03;;;;;;;1.48;1.10;;;;;;;20.99;47.83;102320.22;5014125;28;20049;-73
2022/08/31 09:07:49;;;;;;;8.93;1.45;;;;;;;21.23;47.48;102311.66;5012562;28;20026;-69
2022/08/31 09:10:40;;;;;;;1.67;1.35;;;;;;;21.13;47.31;102319.38;5012149;28;20482;-69
2022/08/31 09:13:29;;;;;;;6.65;1.35;;;;;;;21.53;46.60;102317.97;5012951;28;20056;-69
2022/08/31 09:16:07;;;;;;;1.70;0.80;;;;;;;21.04;46.69;102312.25;5012553;28;20091;-69
2022/08/31 09:19:05;;;;;;;9.75;1.00;;;;;;;21.23;47.12;102311.66;5046142;28;20025;-69
2022/08/31 09:21:37;;;;;;;2.13;0.77;;;;;;;21.62;46.86;102321.44;4984951;28;20083;-70
2022/08/31 09:24:07;;;;;;;3.15;1.00;;;;;;;22.03;45.60;102312.50;5029793;28;20021;-69
2022/08/31 09:27:16;;;;;;;2.33;1.00;;;;;;;22.02;44.59;102305.28;5028011;28;20127;-70
2022/08/31 09:30:04;;;;;;;3.65;0.85;;;;;;;21.81;44.95;102309.75;4989905;28;20045;-69
2022/08/31 09:32:34;;;;;;;2.17;0.82;;;;;;;21.79;45.16;102305.50;5012600;28;20498;-70
2022/08/31 09:35:04;;;;;;;4.30;1.10;;;;;;;;;;5029523;28;20032;-70
2022/08/31 09:37:39;;;;;;;2.08;0.73;;;;;;;21.47;45.69;102307.72;5030110;28;20029;-70
2022/08/31 09:40:13;;;;;;;1.15;0.80;;;;;;;;;;5011753;28;20060;-69
2022/08/31 09:42:40;;;;;;;1.67;0.80;;;;;;;22.27;43.10;102309.34;5017769;28;20046;-69
2022/08/31 09:45:14;;;;;;;2.35;1.13;;;;;;;22.16;42.73;102307.13;5054754;28;20020;-69
2022/08/31 09:47:54;;;;;;;4.53;0.90;;;;;;;22.19;42.77;102307.59;5060199;28;20024;-69
2022/08/31 09:50:35;;;;;;;2.17;0.95;;;;;;;22.71;41.50;102299.88;5020959;28;20025;-71
2022/08/31 09:56:19;;;;;;;3.08;0.80;;;;;;;23.31;40.07;102301.00;5029347;28;20025;-70
2022/08/31 09:58:51;;;;;;;6.18;0.65;;;;;;;23.38;39.16;102307.38;5020437;28;20028;-71
2022/08/31 10:01:37;;;;;;;4.03;1.20;;;;;;;23.33;38.68;102307.16;5028034;28;20033;-73
2022/08/31 10:04:15;;;;;;;4.60;2.35;;;;;;;23.22;37.91;102302.25;5031088;28;20495;-71
2022/08/31 10:06:54;;;;;;;2.17;1.10;;;;;;;23.27;37.41;102300.53;5035840;28;20492;-70
2022/08/31 10:09:27;;;;;;;5.03;1.70;;;;;;;23.27;38.96;102308.00;5053087;28;20513;-71
2022/08/31 10:11:58;;;;;;;1.00;0.75;;;;;;;23.51;38.29;102306.56;5053345;28;20029;-71
2022/08/31 10:14:35;;;;;;;2.33;1.67;;;;;;;23.52;38.45;102303.59;5024784;28;20072;-69
2022/08/31 10:17:09;;;;;;;4.90;1.23;;;;;;;23.69;38.80;102303.25;5038792;28;20435;-71
2022/08/31 10:19:48;;;;;;;4.15;0.95;;;;;;;23.89;37.67;102303.25;5043845;28;20035;-70
2022/08/31 10:22:24;;;;;;;8.57;0.90;;;;;;;23.85;37.18;102297.28;5047422;28;20013;-71
2022/08/31 10:25:16;;;;;;;1.38;0.90;;;;;;;24.37;36.58;102295.59;5035272;28;20035;-71
2022/08/31 10:27:47;;;;;;;;;;;;;;;23.71;37.46;102299.19;5053811;28;20132;-71
2022/08/31 10:30:22;;;;;;;3.40;1.00;;;;;;;23.92;37.75;102297.28;5050103;28;20359;-70
2022/08/31 10:32:55;;;;;;;4.70;1.60;;;;;;;24.51;37.32;102296.41;5015703;28;20030;-71
2022/08/31 10:35:27;;;;;;;10.25;1.38;;;;;;;24.44;37.36;102296.44;5014324;28;20077;-70
2022/08/31 10:38:20;;;;;;;3.55;1.00;;;;;;;24.72;36.69;102298.09;5031212;28;20017;-72
2022/08/31 10:40:59;;;;;;;13.82;1.35;;;;;;;24.84;36.45;102290.78;5055195;28;20027;-70
2022/08/31 10:43:37;;;;;;;5.95;0.90;;;;;;;25.21;36.26;102296.63;5060747;28;20013;-69
2022/08/31 10:46:04;;;;;;;4.00;1.00;;;;;;;24.41;36.27;102291.34;5032061;28;20021;-70
2022/08/31 10:48:31;;;;;;;2.58;1.08;;;;;;;24.12;37.24;102297.28;5033169;28;20025;-71
2022/08/31 10:51:04;;;;;;;1.65;1.10;;;;;;;24.13;37.56;102293.50;5027833;28;20021;-70
2022/08/31 10:54:05;;;;;;;13.35;2.40;;;;;;;23.65;38.73;102293.66;5014574;28;20025;-70
2022/08/31 10:57:15;;;;;;;10.68;1.92;;;;;;;24.00;38.26;102284.13;5013766;28;20041;-70
2022/08/31 11:03:09;;;;;;;;;;;;;;;24.46;37.26;102283.25;5009341;28;20029;-71
2022/08/31 11:05:54;;;;;;;1.63;0.77;;;;;;;24.53;36.86;102270.22;5014724;28;19913;-71
2022/08/31 11:08:36;;;;;;;4.03;1.50;;;;;;;24.74;36.99;102271.00;5014427;28;20051;-70
2022/08/31 11:11:08;;;;;;;10.20;1.63;;;;;;;24.48;37.46;102270.03;5014797;28;20033;-71
2022/08/31 11:13:59;;;;;;;10.75;1.33;;;;;;;24.63;37.79;102272.53;5014987;28;20064;-71
2022/08/31 11:16:53;;;;;;;4.72;1.33;;;;;;;24.80;36.49;102272.91;5014077;28;20039;-69
2022/08/31 11:19:40;;;;;;;1.50;1.15;;;;;;;24.66;36.62;102265.72;5025031;28;20172;-73
2022/08/31 11:22:33;;;;;;;1.23;0.90;;;;;;;24.43;36.98;102261.50;5010058;28;20013;-70
2022/08/31 11:25:25;;;;;;;3.55;1.20;;;;;;;24.91;36.64;102263.94;5021875;28;20029;-71
2022/08/31 11:28:05;;;;;;;;;;;;;;;25.54;36.88;102275.09;5012580;28;20037;-71
2022/08/31 11:30:36;;;;;;;2.13;1.10;;;;;;;26.54;34.34;102258.47;5012471;28;19947;-72
2022/08/31 11:33:10;;;;;;;3.83;1.00;;;;;;;26.67;34.05;102263.88;5014133;28;20014;-72
2022/08/31 11:36:01;;;;;;;1.88;0.90;;;;;;;25.98;34.08;102249.16;5014467;28;20063;-70
2022/08/31 11:39:02;;;;;;;4.32;1.55;;;;;;;25.41;35.46;102264.09;5031781;28;20078;-71
2022/08/31 11:41:47;;;;;;;1.70;0.93;;;;;;;26.07;34.23;102258.03;4972496;28;20091;-72
2022/08/31 11:44:32;;;;;;;8.80;1.10;;;;;;;26.28;34.48;102250.38;5013821;28;20032;-72
2022/08/31 11:47:28;;;;;;;9.80;1.35;;;;;;;26.55;32.28;102248.22;5014170;28;20029;-72
2022/08/31 11:50:04;;;;;;;5.97;1.00;;;;;;;25.60;34.35;102251.16;5031660;28;20036;-72
2022/08/31 11:52:37;;;;;;;4.10;1.10;;;;;;;24.66;35.20;102246.34;5013415;28;20033;-72
2022/08/31 11:55:23;;;;;;;9.32;1.23;;;;;;;23.74;37.81;102250.91;5014096;28;20072;-72